VLG3RX LFPO-LIRF
Flight info
| Callsign | VLG3RX |
|---|---|
| Flight time | N/A |
| Altitude | 37000 |
| Route | OKASI DCT OKEKO DCT MOU DCT MADIV DCT MOKIP DCT TUFTA DCT KOGAS DCT MEDAM DCT NITAM DCT MOGBO DCT ELB/N0449F380 DCT ELKAP |
| Aircraft | A21N/M-SDE2E3FGHIRWXY/LB1 |
Departure
| Time | N/A |
|---|---|
| Airport | Paris-Orly Airport (LFPO) |
Arrival
| Time | 2026-05-01 11:33 |
|---|---|
| Airport | Rome–Fiumicino Leonardo da Vinci International Airport (LIRF) |
| Time | Latitude | Longitude | Altitude | Speed | Heading |
|---|---|---|---|---|---|
| 2026-05-01 10:06 | 48.01521 | 2.91275 | 29413 ft | 426 kts | 161° |
| 2026-05-01 10:06 | 47.98664 | 2.92537 | 29879 ft | 428 kts | 161° |
| 2026-05-01 10:06 | 47.95821 | 2.93789 | 30541 ft | 424 kts | 161° |
| 2026-05-01 10:07 | 47.92998 | 2.95030 | 31184 ft | 420 kts | 161° |
| 2026-05-01 10:07 | 47.90206 | 2.96257 | 31703 ft | 418 kts | 162° |
| 2026-05-01 10:07 | 47.87409 | 2.97487 | 32098 ft | 419 kts | 162° |
| 2026-05-01 10:07 | 47.84649 | 2.98698 | 32544 ft | 419 kts | 162° |
| 2026-05-01 10:08 | 47.79095 | 3.01132 | 33593 ft | 414 kts | 162° |
| 2026-05-01 10:08 | 47.76341 | 3.02337 | 34080 ft | 412 kts | 162° |
| 2026-05-01 10:08 | 47.73599 | 3.03534 | 34459 ft | 411 kts | 162° |
| 2026-05-01 10:09 | 47.70842 | 3.04738 | 34706 ft | 414 kts | 162° |
| 2026-05-01 10:09 | 47.68074 | 3.05947 | 34931 ft | 416 kts | 162° |
| 2026-05-01 10:09 | 47.65291 | 3.07160 | 35168 ft | 418 kts | 162° |
| 2026-05-01 10:09 | 47.62498 | 3.08377 | 35438 ft | 419 kts | 162° |
| 2026-05-01 10:10 | 47.59690 | 3.09598 | 35703 ft | 420 kts | 162° |
| 2026-05-01 10:10 | 47.56878 | 3.10819 | 35954 ft | 422 kts | 162° |
| 2026-05-01 10:10 | 47.51325 | 3.13753 | 36379 ft | 426 kts | 158° |
| 2026-05-01 10:11 | 47.48583 | 3.15407 | 36611 ft | 427 kts | 157° |
| 2026-05-01 10:11 | 47.45859 | 3.17089 | 36865 ft | 428 kts | 157° |
| 2026-05-01 10:11 | 47.43105 | 3.18809 | 37110 ft | 430 kts | 157° |
| 2026-05-01 10:11 | 47.40344 | 3.20536 | 37237 ft | 431 kts | 157° |
| 2026-05-01 10:12 | 47.34825 | 3.23976 | 37241 ft | 431 kts | 157° |
| 2026-05-01 10:13 | 47.26513 | 3.29119 | 37239 ft | 433 kts | 158° |
| 2026-05-01 10:13 | 47.20944 | 3.32549 | 37241 ft | 433 kts | 158° |
| 2026-05-01 10:14 | 47.12613 | 3.37666 | 37241 ft | 433 kts | 158° |
| 2026-05-01 10:14 | 47.07049 | 3.41074 | 37256 ft | 434 kts | 158° |
| 2026-05-01 10:15 | 47.01484 | 3.44475 | 37256 ft | 434 kts | 158° |
| 2026-05-01 10:15 | 46.95908 | 3.47875 | 37257 ft | 434 kts | 158° |
| 2026-05-01 10:16 | 46.90333 | 3.51267 | 37250 ft | 435 kts | 158° |
| 2026-05-01 10:17 | 46.81906 | 3.56379 | 37252 ft | 438 kts | 158° |
| 2026-05-01 10:17 | 46.73964 | 3.62782 | 37252 ft | 440 kts | 140° |
| 2026-05-01 10:18 | 46.70118 | 3.69716 | 37253 ft | 444 kts | 119° |
| 2026-05-01 10:18 | 46.68892 | 3.73861 | 37254 ft | 446 kts | 109° |
| 2026-05-01 10:19 | 46.67236 | 3.82604 | 37254 ft | 449 kts | 105° |
| 2026-05-01 10:19 | 46.65800 | 3.91456 | 37257 ft | 449 kts | 105° |
| 2026-05-01 10:20 | 46.63600 | 4.04662 | 37253 ft | 449 kts | 105° |
| 2026-05-01 10:20 | 46.62076 | 4.13458 | 37260 ft | 447 kts | 106° |
| 2026-05-01 10:21 | 46.59772 | 4.26595 | 37257 ft | 447 kts | 106° |
| 2026-05-01 10:22 | 46.57455 | 4.39725 | 37257 ft | 447 kts | 106° |
| 2026-05-01 10:23 | 46.55127 | 4.52835 | 37254 ft | 444 kts | 106° |
| 2026-05-01 10:23 | 46.52797 | 4.65861 | 37252 ft | 444 kts | 106° |
| 2026-05-01 10:24 | 46.49669 | 4.83195 | 37258 ft | 444 kts | 106° |
| 2026-05-01 10:25 | 46.46517 | 5.00502 | 37255 ft | 444 kts | 106° |
| 2026-05-01 10:26 | 46.44929 | 5.09160 | 37260 ft | 445 kts | 106° |
| 2026-05-01 10:27 | 46.41729 | 5.26515 | 37261 ft | 447 kts | 106° |
| 2026-05-01 10:28 | 46.39106 | 5.39450 | 37272 ft | 445 kts | 115° |
| 2026-05-01 10:28 | 46.35893 | 5.47032 | 37269 ft | 442 kts | 129° |
| 2026-05-01 10:28 | 46.33970 | 5.50508 | 37282 ft | 442 kts | 131° |
| 2026-05-01 10:29 | 46.27954 | 5.60633 | 37272 ft | 442 kts | 132° |
| 2026-05-01 10:30 | 46.19907 | 5.74087 | 37309 ft | 445 kts | 131° |
| 2026-05-01 10:31 | 46.11816 | 5.87675 | 37313 ft | 446 kts | 131° |
| 2026-05-01 10:32 | 46.05732 | 5.97847 | 37290 ft | 446 kts | 131° |
| 2026-05-01 10:33 | 45.97615 | 6.11357 | 37299 ft | 450 kts | 131° |
| 2026-05-01 10:34 | 45.91460 | 6.21557 | 37289 ft | 451 kts | 131° |
| 2026-05-01 10:34 | 45.87338 | 6.28368 | 37288 ft | 451 kts | 132° |
| 2026-05-01 10:35 | 45.81811 | 6.37355 | 37282 ft | 452 kts | 136° |
| 2026-05-01 10:35 | 45.76968 | 6.43054 | 37278 ft | 452 kts | 144° |
| 2026-05-01 10:36 | 45.69296 | 6.50919 | 37273 ft | 452 kts | 145° |
| 2026-05-01 10:37 | 45.64146 | 6.56094 | 37270 ft | 452 kts | 145° |
| 2026-05-01 10:37 | 45.56431 | 6.63879 | 37278 ft | 453 kts | 145° |
| 2026-05-01 10:38 | 45.51272 | 6.69087 | 37288 ft | 456 kts | 145° |
| 2026-05-01 10:38 | 45.46093 | 6.74307 | 37287 ft | 456 kts | 145° |
| 2026-05-01 10:39 | 45.40905 | 6.79523 | 37290 ft | 456 kts | 145° |
| 2026-05-01 10:39 | 45.35711 | 6.84734 | 37306 ft | 457 kts | 145° |
| 2026-05-01 10:40 | 45.30511 | 6.89937 | 37309 ft | 457 kts | 145° |
| 2026-05-01 10:40 | 45.25474 | 6.95472 | 37327 ft | 457 kts | 138° |
| 2026-05-01 10:41 | 45.20861 | 7.01611 | 37336 ft | 458 kts | 136° |
| 2026-05-01 10:42 | 45.14006 | 7.11075 | 37345 ft | 460 kts | 135° |
| 2026-05-01 10:42 | 45.09709 | 7.17771 | 37346 ft | 460 kts | 127° |
| 2026-05-01 10:43 | 45.05938 | 7.25080 | 37341 ft | 460 kts | 124° |
| 2026-05-01 10:43 | 45.02263 | 7.32500 | 37350 ft | 460 kts | 124° |
| 2026-05-01 10:44 | 44.98561 | 7.39813 | 37375 ft | 460 kts | 129° |
| 2026-05-01 10:44 | 44.94195 | 7.46423 | 37360 ft | 460 kts | 134° |
| 2026-05-01 10:45 | 44.89645 | 7.52823 | 37362 ft | 462 kts | 135° |
| 2026-05-01 10:45 | 44.85052 | 7.59179 | 37368 ft | 462 kts | 135° |
| 2026-05-01 10:46 | 44.80461 | 7.65536 | 37377 ft | 463 kts | 135° |
| 2026-05-01 10:46 | 44.75872 | 7.71903 | 37381 ft | 463 kts | 135° |
| 2026-05-01 10:47 | 44.71277 | 7.78271 | 37381 ft | 464 kts | 135° |
| 2026-05-01 10:47 | 44.66671 | 7.84641 | 37382 ft | 465 kts | 135° |
| 2026-05-01 10:48 | 44.62054 | 7.91008 | 37383 ft | 465 kts | 135° |
| 2026-05-01 10:48 | 44.57433 | 7.97365 | 37382 ft | 465 kts | 134° |
| 2026-05-01 10:49 | 44.52799 | 8.03724 | 37362 ft | 467 kts | 134° |
| 2026-05-01 10:49 | 44.48152 | 8.10088 | 37365 ft | 467 kts | 134° |
| 2026-05-01 10:50 | 44.43502 | 8.16442 | 37366 ft | 467 kts | 135° |
| 2026-05-01 10:50 | 44.38875 | 8.22748 | 37351 ft | 467 kts | 135° |
| 2026-05-01 10:51 | 44.34213 | 8.29087 | 37349 ft | 467 kts | 135° |
| 2026-05-01 10:51 | 44.29560 | 8.35399 | 37349 ft | 467 kts | 134° |
| 2026-05-01 10:52 | 44.24877 | 8.41736 | 37343 ft | 470 kts | 134° |
| 2026-05-01 10:52 | 44.20171 | 8.48090 | 37344 ft | 470 kts | 134° |
| 2026-05-01 10:53 | 44.15469 | 8.54425 | 37345 ft | 470 kts | 134° |
| 2026-05-01 10:53 | 44.10763 | 8.60749 | 37341 ft | 470 kts | 135° |
| 2026-05-01 10:54 | 44.06043 | 8.67078 | 37340 ft | 471 kts | 135° |
| 2026-05-01 10:54 | 44.01312 | 8.73407 | 37350 ft | 472 kts | 134° |
| 2026-05-01 10:55 | 43.96560 | 8.79748 | 37345 ft | 474 kts | 134° |
| 2026-05-01 10:55 | 43.91801 | 8.86084 | 37344 ft | 474 kts | 134° |
| 2026-05-01 10:56 | 43.87038 | 8.92411 | 37342 ft | 474 kts | 135° |
| 2026-05-01 10:56 | 43.82293 | 8.98699 | 37347 ft | 475 kts | 135° |
| 2026-05-01 10:57 | 43.77508 | 9.05026 | 37345 ft | 476 kts | 135° |
| 2026-05-01 10:57 | 43.72713 | 9.11351 | 37357 ft | 476 kts | 134° |
| 2026-05-01 10:58 | 43.67904 | 9.17680 | 37346 ft | 478 kts | 134° |
| 2026-05-01 10:58 | 43.63079 | 9.24014 | 37346 ft | 479 kts | 134° |
| 2026-05-01 10:59 | 43.58244 | 9.30348 | 37345 ft | 479 kts | 135° |
| 2026-05-01 10:59 | 43.53407 | 9.36669 | 37345 ft | 479 kts | 135° |
| 2026-05-01 11:00 | 43.48566 | 9.42980 | 37345 ft | 479 kts | 135° |
| 2026-05-01 11:00 | 43.43722 | 9.49281 | 37346 ft | 481 kts | 134° |
| 2026-05-01 11:01 | 43.38830 | 9.55631 | 37350 ft | 485 kts | 134° |
| 2026-05-01 11:01 | 43.33915 | 9.61995 | 37343 ft | 485 kts | 134° |
| 2026-05-01 11:02 | 43.29027 | 9.68308 | 37345 ft | 485 kts | 134° |
| 2026-05-01 11:02 | 43.24105 | 9.74650 | 37331 ft | 485 kts | 134° |
| 2026-05-01 11:03 | 43.19175 | 9.80989 | 37334 ft | 486 kts | 135° |
| 2026-05-01 11:03 | 43.14233 | 9.87329 | 37338 ft | 489 kts | 134° |
| 2026-05-01 11:04 | 43.09251 | 9.93707 | 37332 ft | 491 kts | 134° |
| 2026-05-01 11:04 | 43.04262 | 10.00074 | 36972 ft | 490 kts | 134° |
| 2026-05-01 11:04 | 43.01803 | 10.03207 | 36713 ft | 490 kts | 134° |
| 2026-05-01 11:05 | 42.99313 | 10.06377 | 36452 ft | 489 kts | 134° |
| 2026-05-01 11:05 | 42.96823 | 10.09543 | 36196 ft | 489 kts | 134° |
| 2026-05-01 11:05 | 42.94332 | 10.12707 | 35943 ft | 489 kts | 134° |
| 2026-05-01 11:05 | 42.91826 | 10.15887 | 35683 ft | 489 kts | 134° |
| 2026-05-01 11:06 | 42.89334 | 10.19045 | 35436 ft | 488 kts | 134° |
| 2026-05-01 11:06 | 42.86850 | 10.22189 | 35232 ft | 488 kts | 133° |
| 2026-05-01 11:06 | 42.84349 | 10.25351 | 34984 ft | 490 kts | 133° |
| 2026-05-01 11:07 | 42.79347 | 10.31665 | 34503 ft | 490 kts | 133° |
| 2026-05-01 11:07 | 42.76854 | 10.34818 | 34259 ft | 488 kts | 131° |
| 2026-05-01 11:07 | 42.74739 | 10.38364 | 33965 ft | 479 kts | 116° |
| 2026-05-01 11:07 | 42.73385 | 10.42432 | 33695 ft | 468 kts | 100° |
| 2026-05-01 11:08 | 42.72838 | 10.46688 | 33424 ft | 460 kts | 89° |
| 2026-05-01 11:08 | 42.72608 | 10.51029 | 33154 ft | 460 kts | 87° |
| 2026-05-01 11:08 | 42.72270 | 10.59778 | 32689 ft | 462 kts | 88° |
| 2026-05-01 11:09 | 42.71740 | 10.64091 | 32425 ft | 475 kts | 101° |
| 2026-05-01 11:09 | 42.70391 | 10.68271 | 32164 ft | 486 kts | 113° |
| 2026-05-01 11:09 | 42.68640 | 10.72227 | 31934 ft | 489 kts | 116° |
| 2026-05-01 11:10 | 42.65022 | 10.79981 | 31421 ft | 488 kts | 116° |
| 2026-05-01 11:10 | 42.63188 | 10.83930 | 31175 ft | 488 kts | 115° |
| 2026-05-01 11:10 | 42.61398 | 10.87795 | 30928 ft | 487 kts | 115° |
| 2026-05-01 11:10 | 42.59602 | 10.91683 | 30687 ft | 486 kts | 115° |
| 2026-05-01 11:11 | 42.57807 | 10.95568 | 30446 ft | 486 kts | 115° |
| 2026-05-01 11:11 | 42.56027 | 10.99413 | 29977 ft | 476 kts | 114° |
| 2026-05-01 11:11 | 42.54257 | 11.03232 | 29302 ft | 467 kts | 114° |
| 2026-05-01 11:11 | 42.52570 | 11.06871 | 28675 ft | 458 kts | 114° |
| 2026-05-01 11:12 | 42.50862 | 11.10559 | 28038 ft | 455 kts | 114° |
| 2026-05-01 11:12 | 42.49199 | 11.14157 | 27436 ft | 458 kts | 114° |
| 2026-05-01 11:12 | 42.47481 | 11.17864 | 26786 ft | 459 kts | 114° |
| 2026-05-01 11:12 | 42.45781 | 11.21530 | 26132 ft | 460 kts | 114° |
| 2026-05-01 11:13 | 42.44186 | 11.25291 | 25674 ft | 474 kts | 112° |
| 2026-05-01 11:13 | 42.42563 | 11.29181 | 25430 ft | 475 kts | 112° |
| 2026-05-01 11:13 | 42.40940 | 11.33072 | 25248 ft | 474 kts | 112° |
| 2026-05-01 11:13 | 42.39329 | 11.36952 | 25007 ft | 472 kts | 112° |
| 2026-05-01 11:14 | 42.37725 | 11.40824 | 24774 ft | 470 kts | 112° |
| 2026-05-01 11:14 | 42.36134 | 11.44670 | 24539 ft | 468 kts | 112° |
| 2026-05-01 11:14 | 42.34549 | 11.48499 | 24305 ft | 466 kts | 111° |
| 2026-05-01 11:14 | 42.32971 | 11.52312 | 24078 ft | 464 kts | 111° |
| 2026-05-01 11:15 | 42.31397 | 11.56111 | 23841 ft | 462 kts | 111° |
| 2026-05-01 11:15 | 42.29829 | 11.59892 | 23565 ft | 460 kts | 111° |
| 2026-05-01 11:15 | 42.28270 | 11.63648 | 23274 ft | 458 kts | 111° |
| 2026-05-01 11:15 | 42.26712 | 11.67396 | 23006 ft | 457 kts | 112° |
| 2026-05-01 11:16 | 42.25159 | 11.71131 | 22795 ft | 456 kts | 112° |
| 2026-05-01 11:16 | 42.23605 | 11.74862 | 22520 ft | 455 kts | 112° |
| 2026-05-01 11:16 | 42.22056 | 11.78574 | 22242 ft | 454 kts | 112° |
| 2026-05-01 11:16 | 42.20510 | 11.82272 | 21977 ft | 452 kts | 112° |
| 2026-05-01 11:17 | 42.18965 | 11.85965 | 21715 ft | 450 kts | 112° |
| 2026-05-01 11:17 | 42.17950 | 11.88386 | 21460 ft | 444 kts | 112° |
| 2026-05-01 11:17 | 42.16445 | 11.91964 | 20739 ft | 435 kts | 112° |
| 2026-05-01 11:17 | 42.14966 | 11.95485 | 19989 ft | 428 kts | 112° |
| 2026-05-01 11:18 | 42.13510 | 11.98950 | 19238 ft | 422 kts | 112° |
| 2026-05-01 11:18 | 42.12073 | 12.02365 | 18499 ft | 417 kts | 113° |
| 2026-05-01 11:18 | 42.10651 | 12.05747 | 17719 ft | 410 kts | 114° |
| 2026-05-01 11:18 | 42.09253 | 12.09066 | 16953 ft | 404 kts | 114° |
| 2026-05-01 11:19 | 42.07873 | 12.12335 | 16210 ft | 397 kts | 115° |
| 2026-05-01 11:19 | 42.06530 | 12.15508 | 15849 ft | 375 kts | 114° |
| 2026-05-01 11:19 | 42.05298 | 12.18392 | 15777 ft | 336 kts | 114° |
| 2026-05-01 11:19 | 42.04202 | 12.20957 | 15589 ft | 305 kts | 113° |
| 2026-05-01 11:20 | 42.03188 | 12.23342 | 15496 ft | 284 kts | 112° |
| 2026-05-01 11:20 | 42.02209 | 12.25674 | 15248 ft | 291 kts | 112° |
| 2026-05-01 11:20 | 42.01206 | 12.28070 | 14754 ft | 295 kts | 113° |
| 2026-05-01 11:20 | 42.00199 | 12.30454 | 14453 ft | 291 kts | 113° |
| 2026-05-01 11:21 | 41.99127 | 12.32763 | 14083 ft | 294 kts | 122° |
| 2026-05-01 11:21 | 41.97576 | 12.34580 | 13642 ft | 302 kts | 148° |
| 2026-05-01 11:21 | 41.95627 | 12.35644 | 13232 ft | 302 kts | 158° |
| 2026-05-01 11:21 | 41.93623 | 12.36481 | 12815 ft | 301 kts | 160° |
| 2026-05-01 11:22 | 41.91618 | 12.37286 | 12317 ft | 301 kts | 160° |
| 2026-05-01 11:22 | 41.89637 | 12.38087 | 11802 ft | 301 kts | 160° |
| 2026-05-01 11:22 | 41.87633 | 12.38906 | 11302 ft | 301 kts | 160° |
| 2026-05-01 11:22 | 41.85629 | 12.39731 | 10793 ft | 301 kts | 160° |
| 2026-05-01 11:23 | 41.83632 | 12.40558 | 10323 ft | 300 kts | 160° |
| 2026-05-01 11:23 | 41.81650 | 12.41382 | 9822 ft | 298 kts | 160° |
| 2026-05-01 11:23 | 41.79675 | 12.42204 | 9288 ft | 295 kts | 160° |
| 2026-05-01 11:23 | 41.77727 | 12.43014 | 8768 ft | 292 kts | 160° |
| 2026-05-01 11:24 | 41.75816 | 12.43808 | 8467 ft | 282 kts | 160° |
| 2026-05-01 11:24 | 41.73979 | 12.44570 | 8210 ft | 271 kts | 160° |
| 2026-05-01 11:24 | 41.70507 | 12.46012 | 7731 ft | 254 kts | 160° |
| 2026-05-01 11:25 | 41.68822 | 12.46714 | 7477 ft | 253 kts | 160° |
| 2026-05-01 11:25 | 41.65487 | 12.48097 | 6985 ft | 249 kts | 160° |
| 2026-05-01 11:25 | 41.63835 | 12.48779 | 6751 ft | 247 kts | 160° |
| 2026-05-01 11:26 | 41.62143 | 12.49123 | 6451 ft | 249 kts | 184° |
| 2026-05-01 11:26 | 41.59423 | 12.46646 | 5729 ft | 246 kts | 243° |
| 2026-05-01 11:26 | 41.58802 | 12.44548 | 5360 ft | 245 kts | 252° |
| 2026-05-01 11:27 | 41.58430 | 12.42352 | 4979 ft | 241 kts | 271° |
| 2026-05-01 11:27 | 41.58840 | 12.40233 | 4561 ft | 235 kts | 303° |
| 2026-05-01 11:27 | 41.59890 | 12.38607 | 4113 ft | 230 kts | 321° |
| 2026-05-01 11:27 | 41.61102 | 12.37222 | 3654 ft | 228 kts | 323° |
| 2026-05-01 11:28 | 41.62328 | 12.35896 | 3231 ft | 226 kts | 327° |
| 2026-05-01 11:28 | 41.63673 | 12.34903 | 2903 ft | 216 kts | 340° |
| 2026-05-01 11:28 | 41.65068 | 12.34287 | 2589 ft | 206 kts | 345° |
| 2026-05-01 11:29 | 41.67604 | 12.33250 | 2494 ft | 179 kts | 344° |
| 2026-05-01 11:29 | 41.68788 | 12.32751 | 2496 ft | 178 kts | 345° |
| 2026-05-01 11:29 | 41.71135 | 12.31763 | 2139 ft | 177 kts | 345° |
| 2026-05-01 11:30 | 41.72317 | 12.31275 | 1864 ft | 177 kts | 344° |
| 2026-05-01 11:30 | 41.73478 | 12.30790 | 1637 ft | 176 kts | 345° |
| 2026-05-01 11:30 | 41.74620 | 12.30307 | 1416 ft | 166 kts | 348° |
| 2026-05-01 11:30 | 41.75683 | 12.29868 | 1198 ft | 152 kts | 346° |
| 2026-05-01 11:31 | 41.76644 | 12.29469 | 999 ft | 138 kts | 346° |
| 2026-05-01 11:31 | 41.77516 | 12.29105 | 812 ft | 123 kts | 346° |
| 2026-05-01 11:31 | 41.78317 | 12.28772 | 667 ft | 119 kts | 346° |
| 2026-05-01 11:31 | 41.79101 | 12.28443 | 511 ft | 117 kts | 345° |
| 2026-05-01 11:32 | 41.79875 | 12.28095 | 383 ft | 118 kts | 347° |
| 2026-05-01 11:32 | 41.80663 | 12.27761 | 240 ft | 119 kts | 347° |
| 2026-05-01 11:32 | 41.81441 | 12.27458 | 46 ft | 113 kts | 348° |
| 2026-05-01 11:32 | 41.82133 | 12.27201 | 14 ft | 92 kts | 342° |
| 2026-05-01 11:33 | 41.82566 | 12.27000 | 15 ft | 42 kts | 343° |
| 2026-05-01 11:33 | 41.82817 | 12.26900 | 17 ft | 34 kts | 341° |
| 2026-05-01 11:33 | 41.83018 | 12.26783 | 16 ft | 27 kts | 329° |
| 2026-05-01 11:33 | 41.83144 | 12.26644 | 13 ft | 20 kts | 313° |
| 2026-05-01 11:34 | 41.83212 | 12.26549 | 14 ft | 8 kts | 313° |
| 2026-05-01 11:34 | 41.83237 | 12.26504 | 15 ft | 5 kts | 295° |
| 2026-05-01 11:34 | 41.83240 | 12.26467 | 15 ft | 4 kts | 262° |
| 2026-05-01 11:34 | 41.83231 | 12.26435 | 16 ft | 4 kts | 234° |
| 2026-05-01 11:35 | 41.83206 | 12.26418 | 16 ft | 4 kts | 196° |
| 2026-05-01 11:35 | 41.83154 | 12.26423 | 16 ft | 8 kts | 157° |
| 2026-05-01 11:35 | 41.83088 | 12.26458 | 14 ft | 12 kts | 163° |
| 2026-05-01 11:35 | 41.83001 | 12.26493 | 14 ft | 15 kts | 163° |
| 2026-05-01 11:36 | 41.82897 | 12.26536 | 15 ft | 17 kts | 163° |
| 2026-05-01 11:36 | 41.82772 | 12.26589 | 14 ft | 20 kts | 162° |
| 2026-05-01 11:36 | 41.82632 | 12.26647 | 14 ft | 21 kts | 162° |
| 2026-05-01 11:36 | 41.82484 | 12.26711 | 14 ft | 24 kts | 162° |
| 2026-05-01 11:37 | 41.82319 | 12.26783 | 14 ft | 26 kts | 162° |
| 2026-05-01 11:37 | 41.82140 | 12.26858 | 14 ft | 28 kts | 162° |
| 2026-05-01 11:37 | 41.81946 | 12.26941 | 14 ft | 30 kts | 162° |
| 2026-05-01 11:37 | 41.81754 | 12.27021 | 17 ft | 28 kts | 163° |
| 2026-05-01 11:38 | 41.81562 | 12.27099 | 15 ft | 30 kts | 161° |
| 2026-05-01 11:38 | 41.81359 | 12.27187 | 15 ft | 31 kts | 162° |
| 2026-05-01 11:38 | 41.81186 | 12.27254 | 15 ft | 27 kts | 163° |
| 2026-05-01 11:38 | 41.81010 | 12.27330 | 16 ft | 27 kts | 161° |
| 2026-05-01 11:39 | 41.80833 | 12.27331 | 16 ft | 26 kts | 188° |
| 2026-05-01 11:39 | 41.80671 | 12.27254 | 16 ft | 23 kts | 232° |
| 2026-05-01 11:39 | 41.80611 | 12.27058 | 17 ft | 23 kts | 250° |
| 2026-05-01 11:39 | 41.80552 | 12.26843 | 17 ft | 26 kts | 249° |
| 2026-05-01 11:40 | 41.80487 | 12.26613 | 20 ft | 27 kts | 249° |
| 2026-05-01 11:40 | 41.80441 | 12.26449 | 20 ft | 11 kts | 250° |
| 2026-05-01 11:40 | 41.80436 | 12.26429 | 19 ft | 0 kts | 250° |
| 2026-05-01 11:41 | 41.80435 | 12.26427 | 19 ft | 3 kts | 250° |
| 2026-05-01 11:41 | 41.80391 | 12.26374 | 18 ft | 15 kts | 196° |
| 2026-05-01 11:42 | 41.80282 | 12.26400 | 17 ft | 20 kts | 162° |
| 2026-05-01 11:42 | 41.80155 | 12.26369 | 17 ft | 20 kts | 205° |
| 2026-05-01 11:42 | 41.80016 | 12.26284 | 17 ft | 24 kts | 205° |
| 2026-05-01 11:42 | 41.79866 | 12.26193 | 19 ft | 24 kts | 204° |
| 2026-05-01 11:43 | 41.79769 | 12.26095 | 17 ft | 14 kts | 252° |
| 2026-05-01 11:43 | 41.79798 | 12.25983 | 17 ft | 14 kts | 295° |
| 2026-05-01 11:43 | 41.79834 | 12.25869 | 17 ft | 7 kts | 275° |
| 2026-05-01 11:44 | 41.79763 | 12.25796 | 17 ft | 10 kts | 206° |
| 2026-05-01 11:44 | 41.79686 | 12.25748 | 18 ft | 14 kts | 205° |
| 2026-05-01 11:44 | 41.79621 | 12.25721 | 17 ft | 5 kts | 167° |
| 2026-05-01 11:44 | 41.79605 | 12.25740 | 18 ft | 1 kts | 119° |
| 2026-05-01 11:45 | 41.79598 | 12.25757 | 17 ft | 0 kts | 118° |
| 2026-05-01 11:45 | 41.79595 | 12.25766 | 17 ft | 1 kts | 117° |
| 2026-05-01 11:45 | 41.79594 | 12.25767 | 17 ft | 0 kts | 117° |